createdAt,value
2018-12-03T00:02:11.511Z,47.20
2018-12-03T00:04:44.220Z,48.40
2018-12-03T00:07:16.456Z,49.00
2018-12-03T00:09:48.789Z,48.90
2018-12-03T00:12:21.396Z,49.70
2018-12-03T00:14:53.559Z,50.00
2018-12-03T00:17:26.146Z,50.20
2018-12-03T00:19:58.462Z,50.90
2018-12-03T00:22:31.048Z,50.30
2018-12-03T00:25:03.506Z,52.40
2018-12-03T00:27:35.830Z,51.40
2018-12-03T00:30:10.042Z,51.30
2018-12-03T00:32:42.197Z,52.60
2018-12-03T00:35:14.733Z,53.50
2018-12-03T00:37:47.115Z,54.60
2018-12-03T00:40:19.500Z,54.80
2018-12-03T00:42:51.749Z,56.00
2018-12-03T00:45:24.078Z,55.90
2018-12-03T00:47:56.221Z,55.60
2018-12-03T00:50:28.786Z,56.00
2018-12-03T00:53:01.431Z,56.40
2018-12-03T00:55:33.752Z,56.40
2018-12-03T00:58:06.429Z,57.90
2018-12-03T01:00:39.035Z,58.40
2018-12-03T01:03:11.298Z,58.20
2018-12-03T01:05:44.268Z,58.60
2018-12-03T01:08:16.856Z,58.60
2018-12-03T01:10:49.204Z,59.10
2018-12-03T01:13:21.611Z,59.30
2018-12-03T01:15:54.005Z,60.40
2018-12-03T01:18:26.142Z,61.10
2018-12-03T01:20:58.275Z,63.30
2018-12-03T01:23:30.900Z,64.20
2018-12-03T01:26:03.420Z,65.50
2018-12-03T01:28:35.782Z,67.60
2018-12-03T01:31:08.038Z,69.50
2018-12-03T01:33:40.576Z,70.90
2018-12-03T01:36:13.144Z,72.00
2018-12-03T01:38:45.517Z,72.60
2018-12-03T01:41:17.651Z,72.80
2018-12-03T01:43:50.210Z,72.20
2018-12-03T01:46:22.779Z,71.60
2018-12-03T01:48:56.238Z,71.80
2018-12-03T01:51:28.494Z,72.70
2018-12-03T01:54:00.754Z,73.70
2018-12-03T01:56:32.864Z,75.40
2018-12-03T01:59:05.388Z,76.10
2018-12-03T02:01:37.761Z,76.10
2018-12-03T02:04:10.018Z,76.20
2018-12-03T02:06:42.393Z,75.90
2018-12-03T02:09:14.811Z,74.20
2018-12-03T02:11:47.311Z,73.60
2018-12-03T02:14:19.809Z,73.80
2018-12-03T02:16:52.279Z,73.40
2018-12-03T02:19:24.610Z,73.30
2018-12-03T02:21:57.004Z,73.20
2018-12-03T02:24:30.166Z,73.90
2018-12-03T02:27:02.663Z,73.70
2018-12-03T02:29:35.371Z,73.60
2018-12-03T02:32:08.181Z,74.80
2018-12-03T02:34:40.404Z,75.70
2018-12-03T02:37:13.361Z,76.90
2018-12-03T02:39:45.737Z,77.00
2018-12-03T02:42:17.838Z,78.70
2018-12-03T02:44:49.975Z,79.10
2018-12-03T02:47:22.508Z,79.00
2018-12-03T02:49:54.968Z,80.10
2018-12-03T02:52:27.334Z,81.10
2018-12-03T02:54:59.422Z,82.10
2018-12-03T02:57:31.608Z,81.20
2018-12-03T03:00:04.340Z,80.70
2018-12-03T03:02:36.517Z,81.20
2018-12-03T03:05:13.222Z,83.40
2018-12-03T03:07:45.736Z,84.30
2018-12-03T03:10:18.519Z,85.10
2018-12-03T03:12:51.344Z,85.50
2018-12-03T03:15:23.492Z,85.80
2018-12-03T03:17:55.847Z,85.60
2018-12-03T03:20:28.287Z,85.30
2018-12-03T03:23:00.532Z,85.00
2018-12-03T03:25:32.388Z,84.60
2018-12-03T03:28:04.972Z,83.60
2018-12-03T03:30:37.898Z,83.60
2018-12-03T03:33:10.662Z,82.70
2018-12-03T03:35:42.719Z,81.80
2018-12-03T03:38:15.230Z,81.50
2018-12-03T03:40:47.564Z,80.70
2018-12-03T03:43:19.944Z,80.20
2018-12-03T03:45:52.051Z,79.30
2018-12-03T03:48:24.132Z,79.50
2018-12-03T03:50:56.765Z,79.70
2018-12-03T03:53:28.858Z,80.00
2018-12-03T03:56:00.771Z,80.20
2018-12-03T03:58:32.630Z,81.00
2018-12-03T04:01:05.457Z,82.00
2018-12-03T04:03:38.083Z,82.90
2018-12-03T04:06:10.789Z,83.70
2018-12-03T04:08:43.864Z,84.60
2018-12-03T04:11:16.424Z,85.00
2018-12-03T04:13:49.145Z,85.50
2018-12-03T04:16:21.419Z,85.60
2018-12-03T04:18:53.907Z,85.80
2018-12-03T04:21:26.111Z,85.60
2018-12-03T04:23:58.728Z,85.30
2018-12-03T04:26:31.824Z,85.60
2018-12-03T04:29:04.060Z,84.70
2018-12-03T04:31:36.358Z,84.00
2018-12-03T04:34:09.234Z,83.20
2018-12-03T04:36:42.619Z,82.50
2018-12-03T04:39:15.495Z,82.00
2018-12-03T04:41:48.109Z,81.10
2018-12-03T04:44:20.911Z,80.60
2018-12-03T04:46:53.516Z,79.80
2018-12-03T04:49:25.279Z,79.70
2018-12-03T04:51:57.824Z,79.20
2018-12-03T04:54:30.697Z,78.50
2018-12-03T04:57:03.149Z,77.90
2018-12-03T04:59:35.746Z,77.90
2018-12-03T05:02:08.670Z,77.80
2018-12-03T05:04:41.463Z,77.70
2018-12-03T05:07:13.903Z,78.20
2018-12-03T05:09:45.976Z,78.40
2018-12-03T05:12:18.386Z,79.20
2018-12-03T05:14:50.934Z,78.80
2018-12-03T05:17:23.086Z,79.20
2018-12-03T05:19:55.436Z,79.00
2018-12-03T05:22:27.576Z,79.00
2018-12-03T05:25:00.466Z,78.30
2018-12-03T05:27:32.233Z,78.30
2018-12-03T05:30:04.171Z,77.80
2018-12-03T05:32:36.581Z,77.80
2018-12-03T05:35:10.803Z,77.20
2018-12-03T05:37:43.641Z,77.20
2018-12-03T05:40:20.074Z,76.70
2018-12-03T05:42:52.264Z,76.40
2018-12-03T05:45:24.102Z,76.20
2018-12-03T05:47:56.165Z,75.90
2018-12-03T05:50:28.818Z,75.40
2018-12-03T05:53:01.195Z,75.70
2018-12-03T05:55:34.127Z,76.00
2018-12-03T05:58:06.688Z,75.80
2018-12-03T06:00:38.989Z,76.10
2018-12-03T06:03:11.880Z,75.70
2018-12-03T06:05:44.275Z,75.80
2018-12-03T06:08:17.351Z,75.30
2018-12-03T06:10:49.625Z,75.10
2018-12-03T06:13:22.075Z,74.70
2018-12-03T06:15:54.217Z,74.40
2018-12-03T06:18:26.643Z,74.70
2018-12-03T06:20:58.859Z,74.80
2018-12-03T06:23:31.222Z,74.60
2018-12-03T06:26:03.586Z,74.90
2018-12-03T06:28:36.143Z,74.80
2018-12-03T06:32:14.206Z,74.70
2018-12-03T06:35:37.595Z,75.40
2018-12-03T06:38:15.142Z,75.40
2018-12-03T06:40:42.228Z,75.10
2018-12-03T06:43:14.522Z,74.60
2018-12-03T06:45:47.108Z,75.00
2018-12-03T06:48:21.420Z,74.50
2018-12-03T06:50:53.608Z,74.20
2018-12-03T06:53:25.799Z,74.00
2018-12-03T06:55:57.858Z,74.00
2018-12-03T06:58:30.043Z,73.60
2018-12-03T07:01:02.470Z,74.40
2018-12-03T07:03:35.032Z,75.70
2018-12-03T07:06:07.298Z,77.00
2018-12-03T07:08:39.710Z,79.60
2018-12-03T07:11:12.101Z,80.60
2018-12-03T07:13:44.367Z,80.80
2018-12-03T07:16:16.982Z,81.70
2018-12-03T07:18:49.349Z,82.50
2018-12-03T07:21:21.415Z,82.70
2018-12-03T07:23:53.527Z,82.80
2018-12-03T07:26:25.928Z,82.90
2018-12-03T07:28:58.402Z,82.80
2018-12-03T07:31:30.570Z,82.70
2018-12-03T07:34:03.465Z,82.50
2018-12-03T07:36:35.759Z,82.30
2018-12-03T07:39:09.091Z,81.70
2018-12-03T07:41:41.499Z,81.50
2018-12-03T07:44:13.881Z,80.30
2018-12-03T07:46:46.272Z,79.70
2018-12-03T07:49:18.397Z,79.50
2018-12-03T07:51:50.806Z,79.20
2018-12-03T07:54:23.074Z,78.90
2018-12-03T07:56:55.394Z,79.10
2018-12-03T07:59:27.645Z,78.70
2018-12-03T08:02:00.033Z,78.80
2018-12-03T08:04:32.425Z,79.60
2018-12-03T08:07:04.638Z,80.00
2018-12-03T08:09:37.425Z,80.00
2018-12-03T08:12:09.923Z,80.00
2018-12-03T08:14:42.476Z,79.60
2018-12-03T08:17:14.671Z,79.70
2018-12-03T08:19:47.298Z,79.70
2018-12-03T08:22:19.411Z,79.40
2018-12-03T08:24:51.547Z,79.50
2018-12-03T08:27:24.455Z,79.50
2018-12-03T08:29:56.707Z,79.00
2018-12-03T08:32:29.113Z,79.20
2018-12-03T08:35:01.464Z,79.40
2018-12-03T08:37:33.646Z,79.10
2018-12-03T08:40:06.455Z,79.10
2018-12-03T08:42:39.795Z,79.50
2018-12-03T08:45:12.153Z,80.10
2018-12-03T08:47:44.798Z,80.80
2018-12-03T08:50:22.955Z,81.90
2018-12-03T08:52:55.423Z,83.00
2018-12-03T08:55:27.959Z,83.30
2018-12-03T08:58:00.393Z,83.40
2018-12-03T09:00:33.064Z,83.70
2018-12-03T09:03:09.794Z,83.90
2018-12-03T09:05:42.567Z,84.10
2018-12-03T09:08:15.041Z,84.60
2018-12-03T09:10:47.599Z,84.50
2018-12-03T09:13:23.122Z,84.40
2018-12-03T09:16:00.433Z,84.70
2018-12-03T09:18:36.551Z,84.30
2018-12-03T09:21:13.724Z,84.00
2018-12-03T09:23:47.103Z,84.40
2018-12-03T09:26:19.384Z,84.20
2018-12-03T09:28:51.790Z,84.40
2018-12-03T09:31:25.589Z,84.40
2018-12-03T09:33:59.765Z,85.00
2018-12-03T09:36:32.095Z,85.20
2018-12-03T09:39:12.052Z,86.00
2018-12-03T09:41:44.500Z,86.20
2018-12-03T09:44:16.668Z,86.50
2018-12-03T09:46:49.220Z,86.20
2018-12-03T09:49:21.640Z,86.20
2018-12-03T09:51:53.907Z,86.30
2018-12-03T09:54:26.121Z,86.50
2018-12-03T09:56:58.839Z,86.50
2018-12-03T09:59:31.134Z,87.00
2018-12-03T10:02:04.784Z,87.40
2018-12-03T10:04:40.881Z,87.90
2018-12-03T10:07:18.249Z,88.40
2018-12-03T10:09:50.794Z,88.90
2018-12-03T10:12:23.520Z,88.80
2018-12-03T10:14:56.334Z,89.30
2018-12-03T10:17:28.316Z,89.50
2018-12-03T10:20:06.491Z,89.70
2018-12-03T10:22:39.013Z,90.20
2018-12-03T10:25:14.977Z,90.50
2018-12-03T10:27:47.251Z,90.80
2018-12-03T10:30:22.591Z,91.00
2018-12-03T10:32:55.458Z,91.20
2018-12-03T10:35:34.224Z,91.50
2018-12-03T10:38:17.749Z,92.10
2018-12-03T10:40:53.685Z,92.40
2018-12-03T10:43:26.070Z,92.70
2018-12-03T10:45:58.399Z,92.80
2018-12-03T10:48:30.931Z,93.20
2018-12-03T10:51:03.837Z,93.40
2018-12-03T10:53:36.174Z,93.50
2018-12-03T10:56:08.742Z,93.70
2018-12-03T10:58:42.651Z,93.70
2018-12-03T11:01:19.539Z,93.70
2018-12-03T11:03:56.509Z,94.00
2018-12-03T11:06:28.910Z,94.00
2018-12-03T11:09:01.188Z,94.00
2018-12-03T11:11:33.328Z,94.20
2018-12-03T11:14:07.607Z,94.20
2018-12-03T11:16:40.901Z,94.30
2018-12-03T11:19:13.513Z,94.50
2018-12-03T11:21:46.047Z,94.40
2018-12-03T11:24:19.186Z,94.60
2018-12-03T11:26:52.619Z,94.60
2018-12-03T11:29:25.198Z,94.60
2018-12-03T11:31:57.944Z,94.70
2018-12-03T11:34:30.201Z,94.60
2018-12-03T11:37:03.923Z,94.80
2018-12-03T11:39:47.524Z,94.90
2018-12-03T11:42:19.893Z,95.00
2018-12-03T11:44:52.239Z,95.00
2018-12-03T11:47:24.423Z,95.00
2018-12-03T11:49:56.892Z,95.00
2018-12-03T11:52:29.176Z,94.90
2018-12-03T11:55:01.784Z,95.00
2018-12-03T11:57:34.073Z,95.00
2018-12-03T12:00:07.050Z,95.00
2018-12-03T12:02:39.306Z,94.90
2018-12-03T12:05:11.774Z,94.80
2018-12-03T12:07:44.293Z,94.80
2018-12-03T12:10:16.530Z,94.80
2018-12-03T12:12:49.551Z,94.60
2018-12-03T12:15:22.075Z,94.50
2018-12-03T12:17:54.516Z,94.40
2018-12-03T12:20:26.712Z,94.20
2018-12-03T12:22:58.925Z,94.20
2018-12-03T12:25:31.135Z,94.20
2018-12-03T12:28:03.297Z,94.20
2018-12-03T12:30:35.473Z,94.30
2018-12-03T12:33:07.709Z,94.10
2018-12-03T12:35:39.791Z,93.90
2018-12-03T12:38:11.986Z,93.70
2018-12-03T12:40:44.366Z,93.60
2018-12-03T12:43:16.829Z,93.70
2018-12-03T12:45:55.265Z,93.80
2018-12-03T12:48:27.627Z,93.50
2018-12-03T12:51:00.016Z,93.40
2018-12-03T12:53:32.371Z,93.20
2018-12-03T12:56:04.703Z,93.20
2018-12-03T12:58:36.904Z,93.10
2018-12-03T13:01:08.816Z,93.00
2018-12-03T13:03:41.306Z,92.90
2018-12-03T13:06:13.978Z,92.80
2018-12-03T13:08:46.400Z,92.90
2018-12-03T13:11:18.979Z,92.90
2018-12-03T13:13:51.603Z,92.80
2018-12-03T13:16:24.194Z,92.70
2018-12-03T13:18:56.987Z,92.90
2018-12-03T13:21:29.548Z,92.80
2018-12-03T13:24:01.716Z,92.80
2018-12-03T13:26:34.542Z,92.90
2018-12-03T13:29:07.179Z,93.10
2018-12-03T13:31:39.391Z,93.30
2018-12-03T13:34:11.907Z,93.40
2018-12-03T13:36:44.118Z,93.40
2018-12-03T13:39:16.348Z,93.40
2018-12-03T13:41:48.440Z,93.60
2018-12-03T13:44:20.849Z,93.60
2018-12-03T13:46:52.990Z,93.70
2018-12-03T13:49:25.168Z,93.80
2018-12-03T13:51:57.723Z,93.90
2018-12-03T13:54:30.091Z,93.80
2018-12-03T13:57:02.426Z,93.90
2018-12-03T13:59:34.798Z,94.00
2018-12-03T14:02:09.110Z,94.00
2018-12-03T14:04:41.716Z,94.10
2018-12-03T14:07:24.301Z,94.10
2018-12-03T14:10:33.966Z,94.20
2018-12-03T14:13:10.436Z,94.30
2018-12-03T14:15:57.705Z,94.30
2018-12-03T14:18:36.799Z,94.40
2018-12-03T14:21:16.405Z,94.50
2018-12-03T14:23:50.266Z,94.60
2018-12-03T14:26:22.588Z,94.60
2018-12-03T14:28:55.086Z,94.70
2018-12-03T14:31:27.719Z,94.80
2018-12-03T14:34:00.044Z,95.00
2018-12-03T14:36:32.425Z,95.10
2018-12-03T14:39:06.333Z,95.20
2018-12-03T14:41:38.764Z,95.20
2018-12-03T14:44:11.194Z,95.20
2018-12-03T14:46:43.586Z,95.40
2018-12-03T14:49:15.984Z,95.40
2018-12-03T14:51:48.108Z,95.50
2018-12-03T14:54:20.464Z,95.60
2018-12-03T14:56:52.729Z,95.70
2018-12-03T14:59:25.167Z,95.90
2018-12-03T15:01:57.627Z,95.80
2018-12-03T15:04:29.706Z,95.90
2018-12-03T15:07:01.697Z,95.90
2018-12-03T15:09:33.848Z,96.00
2018-12-03T15:12:06.296Z,96.10
2018-12-03T15:14:38.551Z,96.10
2018-12-03T15:17:10.760Z,96.10
2018-12-03T15:19:42.878Z,96.20
2018-12-03T15:22:15.739Z,96.20
2018-12-03T15:24:47.927Z,96.30
2018-12-03T15:27:20.463Z,96.30
2018-12-03T15:29:52.856Z,96.20
2018-12-03T15:32:25.133Z,96.30
2018-12-03T15:34:57.280Z,96.40
2018-12-03T15:37:29.302Z,96.40
2018-12-03T15:40:01.445Z,96.40
2018-12-03T15:42:33.554Z,96.40
2018-12-03T15:45:06.504Z,96.70
2018-12-03T15:47:38.853Z,96.50
2018-12-03T15:50:11.714Z,96.50
2018-12-03T15:52:44.018Z,96.70
2018-12-03T15:55:16.441Z,96.70
2018-12-03T15:57:48.429Z,96.70
2018-12-03T16:00:20.685Z,96.80
2018-12-03T16:02:52.958Z,96.90
2018-12-03T16:05:27.339Z,96.90
2018-12-03T16:07:59.547Z,96.80
2018-12-03T16:10:32.005Z,96.80
2018-12-03T16:13:04.198Z,96.90
2018-12-03T16:15:36.576Z,97.20
2018-12-03T16:18:08.935Z,96.90
2018-12-03T16:20:41.296Z,97.00
2018-12-03T16:23:13.711Z,97.20
2018-12-03T16:25:46.446Z,97.30
2018-12-03T16:28:19.257Z,97.30
2018-12-03T16:30:51.608Z,97.30
2018-12-03T16:33:24.201Z,97.30
2018-12-03T16:35:56.583Z,97.20
2018-12-03T16:38:29.116Z,97.30
2018-12-03T16:41:01.500Z,97.50
2018-12-03T16:43:33.912Z,97.60
2018-12-03T16:46:06.106Z,97.40
2018-12-03T16:48:38.258Z,97.40
2018-12-03T16:51:10.574Z,97.30
2018-12-03T16:53:42.961Z,97.30
2018-12-03T16:56:15.371Z,97.50
2018-12-03T16:58:47.661Z,97.60
2018-12-03T17:01:20.019Z,97.50
2018-12-03T17:03:52.420Z,97.60
2018-12-03T17:06:25.599Z,97.30
2018-12-03T17:08:58.256Z,97.50
2018-12-03T17:11:30.358Z,97.30
2018-12-03T17:14:02.496Z,97.40
2018-12-03T17:16:34.696Z,97.20
2018-12-03T17:19:06.901Z,97.20
2018-12-03T17:21:51.709Z,97.20
2018-12-03T17:24:29.905Z,97.10
2018-12-03T17:27:02.230Z,97.30
2018-12-03T17:29:34.531Z,97.00
2018-12-03T17:32:06.925Z,96.80
2018-12-03T17:34:39.539Z,96.90
2018-12-03T17:37:11.663Z,97.00
2018-12-03T17:39:44.041Z,97.10
2018-12-03T17:42:16.231Z,97.10
2018-12-03T17:44:48.579Z,97.00
2018-12-03T17:47:20.945Z,97.00
2018-12-03T17:49:53.387Z,97.00
2018-12-03T17:52:25.648Z,97.00
2018-12-03T17:54:57.915Z,97.20
2018-12-03T17:57:30.254Z,97.10
2018-12-03T18:00:02.366Z,97.30
2018-12-03T18:02:34.755Z,97.00
2018-12-03T18:05:07.214Z,97.00
2018-12-03T18:07:39.491Z,97.20
2018-12-03T18:10:13.215Z,97.20
2018-12-03T18:12:45.535Z,97.10
2018-12-03T18:15:17.750Z,97.00
2018-12-03T18:17:50.029Z,97.00
2018-12-03T18:20:22.528Z,96.80
2018-12-03T18:22:54.740Z,97.00
2018-12-03T18:25:27.063Z,97.00
2018-12-03T18:27:59.417Z,96.50
2018-12-03T18:30:32.003Z,96.30
2018-12-03T18:33:04.522Z,96.20
2018-12-03T18:35:36.521Z,95.50
2018-12-03T18:38:08.916Z,95.70
2018-12-03T18:40:41.492Z,94.70
2018-12-03T18:43:13.844Z,93.80
2018-12-03T18:45:46.039Z,93.70
2018-12-03T18:48:18.886Z,93.60
2018-12-03T18:50:54.035Z,93.00
2018-12-03T18:53:29.417Z,92.40
2018-12-03T18:56:01.748Z,92.20
2018-12-03T18:58:44.669Z,91.70
2018-12-03T19:01:16.891Z,92.20
2018-12-03T19:03:49.281Z,92.00
2018-12-03T19:06:22.108Z,91.60
2018-12-03T19:08:54.410Z,91.40
2018-12-03T19:11:26.864Z,90.80
2018-12-03T19:13:59.894Z,83.70
2018-12-03T19:16:32.383Z,84.30
2018-12-03T19:19:04.536Z,85.40
2018-12-03T19:21:36.710Z,87.70
2018-12-03T19:24:08.674Z,82.70
2018-12-03T19:26:41.622Z,79.90
2018-12-03T19:29:13.686Z,81.80
2018-12-03T19:31:45.967Z,81.10
2018-12-03T19:34:18.147Z,81.60
2018-12-03T19:36:50.568Z,80.60
2018-12-03T19:39:22.682Z,76.10
2018-12-03T19:41:55.588Z,72.70
2018-12-03T19:44:28.368Z,72.10
2018-12-03T19:47:00.954Z,68.30
2018-12-03T19:49:33.582Z,64.90
2018-12-03T19:52:05.892Z,67.00
2018-12-03T19:54:38.325Z,65.20
2018-12-03T19:57:10.936Z,66.30
2018-12-03T19:59:50.050Z,63.80
2018-12-03T20:02:22.479Z,62.20
2018-12-03T20:04:55.020Z,62.70
2018-12-03T20:07:27.432Z,62.90
2018-12-03T20:10:00.975Z,61.70
2018-12-03T20:12:33.411Z,58.50
2018-12-03T20:15:05.621Z,58.20
2018-12-03T20:17:40.567Z,58.20
2018-12-03T20:20:16.817Z,57.10
2018-12-03T20:22:59.222Z,56.90
2018-12-03T20:25:51.151Z,55.60
2018-12-03T20:28:37.726Z,55.70
2018-12-03T20:31:25.806Z,57.40
2018-12-03T20:34:13.249Z,58.60
2018-12-03T20:37:56.094Z,58.90
2018-12-03T20:40:41.577Z,58.70
2018-12-03T20:43:19.348Z,59.30
2018-12-03T20:46:03.184Z,60.20
2018-12-03T20:48:44.134Z,60.70
2018-12-03T20:51:25.724Z,61.70
2018-12-03T20:53:57.864Z,62.60
2018-12-03T20:56:30.358Z,62.70
2018-12-03T20:59:03.011Z,62.90
2018-12-03T21:01:37.007Z,62.50
2018-12-03T21:04:09.262Z,61.50
2018-12-03T21:06:41.682Z,61.90
2018-12-03T21:09:14.130Z,61.80
2018-12-03T21:11:46.159Z,61.10
2018-12-03T21:14:20.290Z,60.50
2018-12-03T21:16:50.856Z,60.50
2018-12-03T21:19:23.167Z,60.70
2018-12-03T21:21:56.769Z,61.20
2018-12-03T21:24:28.990Z,60.80
2018-12-03T21:27:01.264Z,61.10
2018-12-03T21:29:33.609Z,58.00
2018-12-03T21:32:06.057Z,57.80
2018-12-03T21:34:38.419Z,58.30
2018-12-03T21:37:10.671Z,58.40
2018-12-03T21:39:47.922Z,59.70
2018-12-03T21:42:15.787Z,59.70
2018-12-03T21:44:47.968Z,55.90
2018-12-03T21:47:20.134Z,56.10
2018-12-03T21:49:52.085Z,57.10
2018-12-03T21:52:24.242Z,57.20
2018-12-03T21:54:56.466Z,57.50
2018-12-03T21:57:28.747Z,55.60
2018-12-03T22:00:01.258Z,53.10
2018-12-03T22:02:33.719Z,52.30
2018-12-03T22:05:05.849Z,52.20
2018-12-03T22:07:38.219Z,49.40
2018-12-03T22:10:10.977Z,49.10
2018-12-03T22:12:43.459Z,48.20
2018-12-03T22:15:15.754Z,49.50
2018-12-03T22:17:47.904Z,49.80
2018-12-03T22:20:20.278Z,50.00
2018-12-03T22:22:52.642Z,48.30
2018-12-03T22:25:24.716Z,47.50
2018-12-03T22:27:57.076Z,48.10
2018-12-03T22:30:30.295Z,45.80
2018-12-03T22:33:02.648Z,42.00
2018-12-03T22:35:35.150Z,39.40
2018-12-03T22:38:07.204Z,38.00
2018-12-03T22:40:39.391Z,37.40
2018-12-03T22:43:11.760Z,36.70
2018-12-03T22:45:44.227Z,37.10
2018-12-03T22:48:16.816Z,37.10
2018-12-03T22:50:49.223Z,35.70
2018-12-03T22:53:21.502Z,36.00
2018-12-03T22:55:54.096Z,35.60
2018-12-03T22:58:27.555Z,35.60
2018-12-03T23:01:07.718Z,34.30
2018-12-03T23:03:40.596Z,33.50
2018-12-03T23:06:13.058Z,32.90
2018-12-03T23:08:45.156Z,33.30
2018-12-03T23:11:17.500Z,33.30
2018-12-03T23:13:50.120Z,33.60
2018-12-03T23:16:22.454Z,33.80
2018-12-03T23:18:55.053Z,33.40
2018-12-03T23:21:27.517Z,33.00
2018-12-03T23:23:59.708Z,34.20
2018-12-03T23:26:32.049Z,34.20
2018-12-03T23:29:04.240Z,33.60
2018-12-03T23:31:36.713Z,34.20
2018-12-03T23:34:09.267Z,34.50
2018-12-03T23:36:42.668Z,35.50
2018-12-03T23:39:18.281Z,35.10
2018-12-03T23:41:52.421Z,34.70
2018-12-03T23:44:26.793Z,35.20
2018-12-03T23:47:00.906Z,35.10
2018-12-03T23:49:33.828Z,35.60
2018-12-03T23:54:46.420Z,36.00
2018-12-03T23:57:20.039Z,35.80
2018-12-03T23:59:56.294Z,35.80
